Sunday, July 22, 2018, 12:12 PM EDT
Back to Local

KJYO, Leesburg / Godfrey

Location: Leesburg, VA, United States Lat: 39.083
Local Time: 12:12 PM EDT (16:12 GMT) Lon: -77.567
Time Zone: US/Eastern Elev: 390 ft

Show me the last for .
Show Decoded

2018-07-22 11:35 METAR KJYO 221535Z AUTO 15008KT 10SM BKN017 OVC030 23/19 A2985 RMK AO2 =
2018-07-22 11:15 METAR KJYO 221515Z AUTO 15007KT 10SM OVC017 22/18 A2985 RMK AO2 =
2018-07-22 10:55 METAR KJYO 221455Z AUTO 16007KT 10SM BKN015 BKN036 OVC048 22/18 A2985 RMK AO2 =
2018-07-22 10:35 METAR KJYO 221435Z AUTO 16006KT 10SM BKN013 OVC036 21/18 A2985 RMK AO2 =
2018-07-22 10:15 METAR KJYO 221415Z AUTO 17007KT 10SM BKN011 BKN025 OVC036 21/18 A2985 RMK AO2
                 LTG DSNT SE =
2018-07-22 09:55 METAR KJYO 221355Z AUTO 16006KT 10SM OVC011 20/18 A2985 RMK AO2 =
2018-07-22 09:35 METAR KJYO 221335Z AUTO 16004KT 10SM OVC011 20/17 A2985 RMK AO2 =
2018-07-22 09:15 METAR KJYO 221315Z AUTO 15007KT 10SM BKN011 BKN032 18/17 A2985 RMK AO2 LTG DSNT
                 SW =
2018-07-22 08:55 METAR KJYO 221255Z AUTO 00000KT 10SM SCT014 18/17 A2984 RMK AO2 =
2018-07-22 08:35 METAR KJYO 221235Z AUTO 00000KT 10SM SCT005 BKN014 17/16 A2983 RMK AO2 =
2018-07-22 08:15 METAR KJYO 221215Z AUTO 00000KT 10SM BKN016 16/16 A2982 RMK AO2 =
2018-07-22 07:55 METAR KJYO 221155Z AUTO 15004KT 10SM SCT018 16/16 A2982 RMK AO2 =
2018-07-22 07:35 METAR KJYO 221135Z AUTO 15004KT 10SM CLR 15/15 A2980 RMK AO2 =
2018-07-22 07:15 METAR KJYO 221115Z AUTO 00000KT 10SM CLR 15/15 A2978 RMK AO2 =
2018-07-22 06:55 METAR KJYO 221055Z AUTO 00000KT 10SM CLR 15/15 A2978 RMK AO2 =
2018-07-22 06:35 METAR KJYO 221035Z AUTO 00000KT 10SM CLR 14/14 A2977 RMK AO2 LTG DSNT N =
2018-07-22 06:15 METAR KJYO 221015Z AUTO 00000KT 10SM CLR 14/14 A2977 RMK AO2 =
2018-07-22 05:55 METAR KJYO 220955Z AUTO 00000KT 10SM CLR 14/14 A2976 RMK AO2 =
2018-07-22 05:35 METAR KJYO 220935Z AUTO 20004KT 10SM CLR 14/14 A2977 RMK AO2 =
2018-07-22 05:15 METAR KJYO 220915Z AUTO 00000KT 10SM CLR 15/15 A2975 RMK AO2 =
2018-07-22 04:55 METAR KJYO 220855Z AUTO 00000KT 10SM CLR 15/15 A2974 RMK AO2 =
2018-07-22 04:35 METAR KJYO 220835Z AUTO 00000KT 10SM CLR 15/15 A2974 RMK AO2 =
2018-07-22 04:15 METAR KJYO 220815Z AUTO 24003KT 10SM SCT009 15/15 A2973 RMK AO2 =
2018-07-22 03:55 METAR KJYO 220755Z AUTO 28006KT 10SM BKN009 15/15 A2972 RMK AO2 =
2018-07-22 03:35 METAR KJYO 220735Z AUTO 27008KT 10SM BKN009 15/15 A2972 RMK AO2 =
2018-07-22 03:15 METAR KJYO 220715Z AUTO 30008KT 10SM SCT009 SCT070 BKN110 15/15 A2971 RMK AO2 =
2018-07-22 02:55 METAR KJYO 220655Z AUTO 30007KT 10SM SCT019 SCT070 OVC110 15/15 A2971 RMK AO2 =
2018-07-22 02:35 METAR KJYO 220635Z AUTO 31009KT 10SM SCT007 OVC018 15/15 A2971 RMK AO2 =
2018-07-22 02:15 METAR KJYO 220615Z AUTO 30010G15KT 10SM BKN007 OVC016 15/15 A2971 RMK AO2 =
2018-07-22 01:55 METAR KJYO 220555Z AUTO 29010G15KT 10SM BKN007 OVC014 15/15 A2971 RMK AO2 =
2018-07-22 01:35 METAR KJYO 220535Z AUTO 29011G15KT 10SM -RA SCT007 OVC014 15/15 A2971 RMK AO2 =
2018-07-22 01:15 METAR KJYO 220515Z AUTO 32009KT 10SM -RA SCT007 OVC014 15/15 A2970 RMK AO2 =
2018-07-22 00:55 METAR KJYO 220455Z AUTO 32008KT 10SM -RA OVC012 15/15 A2971 RMK AO2 =
2018-07-22 00:35 METAR KJYO 220435Z AUTO 33009KT 10SM OVC010 15/15 A2972 RMK AO2 =
2018-07-22 00:15 METAR KJYO 220415Z AUTO 32012KT 10SM -RA OVC010 16/16 A2972 RMK AO2 =
2018-07-21 23:55 METAR KJYO 220355Z AUTO 35012G15KT 10SM -DZ OVC010 16/16 A2972 RMK AO2 P0003 =
2018-07-21 23:35 METAR KJYO 220335Z AUTO 35011G17KT 10SM -RA OVC008 15/15 A2974 RMK AO2 P0003 =
2018-07-21 23:15 METAR KJYO 220315Z AUTO 36012G21KT 10SM -RA OVC006 15/15 A2974 RMK AO2 P0002 =
2018-07-21 22:55 METAR KJYO 220255Z AUTO 35011G15KT 10SM RA OVC006 15/15 A2975 RMK AO2 P0016 =
2018-07-21 22:35 METAR KJYO 220235Z AUTO 02009G16KT 7SM RA BKN006 OVC013 15/15 A2975 RMK AO2
                 P0013 =
2018-07-21 22:15 METAR KJYO 220215Z AUTO 02011G17KT 7SM RA OVC006 16/16 A2976 RMK AO2 P0007 =
2018-07-21 21:55 METAR KJYO 220155Z AUTO 02007G21KT 5SM +RA OVC006 16/16 A2976 RMK AO2 LTG DSNT
                 SE P0024 =
2018-07-21 21:35 METAR KJYO 220135Z AUTO 01009G19KT 5SM +RA OVC006 16/16 A2976 RMK AO2 P0016 =
2018-07-21 21:15 METAR KJYO 220115Z AUTO 03009G16KT 5SM +RA OVC006 16/16 A2977 RMK AO2 P0008 =
2018-07-21 20:55 METAR KJYO 220055Z AUTO 01010G15KT 4SM +RA OVC006 16/16 A2978 RMK AO2 P0051 =
2018-07-21 20:35 METAR KJYO 220035Z AUTO 03010G16KT 4SM +RA SCT008 BKN028 OVC060 16/16 A2978 RMK
                 AO2 P0037 =
2018-07-21 20:15 METAR KJYO 220015Z AUTO 01012G18KT 2 1/2SM +RA SCT008 BKN023 OVC043 16/16 A2978
                 RMK AO2 P0027 =
2018-07-21 19:55 METAR KJYO 212355Z AUTO 01012G18KT 5SM +RA SCT006 BKN016 OVC032 16/16 A2980 RMK
                 AO2 P0161 =
2018-07-21 19:35 METAR KJYO 212335Z AUTO 02011G18KT 3/4SM +RA OVC016 16/16 A2980 RMK AO2 P0148 =
2018-07-21 19:15 METAR KJYO 212315Z AUTO 03012G17KT 1/2SM +RA BKN003 BKN010 OVC018 16/16 A2983
                 RMK AO2 P0072 =
2018-07-21 18:55 METAR KJYO 212255Z AUTO 02011G18KT 1/4SM +RA OVC005 16/16 A2982 RMK AO2 P0123 =
2018-07-21 18:35 METAR KJYO 212235Z AUTO 04008KT 1 1/4SM +RA OVC005 16/16 A2983 RMK AO2 P0044 =
2018-07-21 18:15 METAR KJYO 212215Z AUTO 02009G18KT 3SM +RA OVC005 16/16 A2983 RMK AO2 P0011 =
2018-07-21 17:55 METAR KJYO 212155Z AUTO 02011G20KT 3SM +RA OVC005 16/16 A2984 RMK AO2 P0035 =
2018-07-21 17:35 METAR KJYO 212135Z AUTO 02014G20KT 3SM +RA OVC007 16/16 A2984 RMK AO2 P0022 =
2018-07-21 17:15 METAR KJYO 212115Z AUTO 02010G17KT 2 1/2SM +RA OVC007 16/16 A2985 RMK AO2 P0011
                 =
2018-07-21 16:55 METAR KJYO 212055Z AUTO 01011G18KT 4SM +RA BKN007 OVC012 16/16 A2986 RMK AO2
                 P0029 =
2018-07-21 16:35 METAR KJYO 212035Z AUTO 02011G18KT 3SM +RA OVC007 16/16 A2987 RMK AO2 P0020 =
2018-07-21 16:15 METAR KJYO 212015Z AUTO 02013G19KT 4SM +RA BKN007 OVC011 16/16 A2988 RMK AO2
                 P0007 =
2018-07-21 15:55 METAR KJYO 211955Z AUTO 02010G22KT 4SM +RA BKN009 BKN012 OVC019 16/16 A2989 RMK
                 AO2 P0018 =
2018-07-21 15:35 METAR KJYO 211935Z AUTO 02012G17KT 5SM RA SCT007 SCT013 OVC021 17/17 A2989 RMK
                 AO2 P0009 =
2018-07-21 15:15 METAR KJYO 211915Z AUTO 02011G21KT 5SM RA BKN007 OVC021 17/17 A2990 RMK AO2
                 P0004 =
2018-07-21 14:55 METAR KJYO 211855Z AUTO 03009G18KT 2 1/2SM RA BKN007 BKN023 OVC037 17/17 A2991
                 RMK AO2 P0033 =
2018-07-21 14:35 METAR KJYO 211835Z AUTO 03008G18KT 2SM +RA SCT007 SCT012 OVC025 17/17 A2992 RMK
                 AO2 P0020 =
2018-07-21 14:15 METAR KJYO 211815Z AUTO 05011G20KT 3SM +RA SCT006 BKN011 OVC033 17/17 A2993 RMK
                 AO2 P0005 =
2018-07-21 13:55 METAR KJYO 211755Z AUTO 06017KT 1 3/4SM +RA OVC006 18/18 A2993 RMK AO2 P0036 =
2018-07-21 13:35 METAR KJYO 211735Z AUTO 04007KT 2SM +RA SCT006 BKN009 OVC019 18/18 A2994 RMK AO2
                 P0019 =
2018-07-21 13:15 METAR KJYO 211715Z AUTO 05005KT 2SM +RA BKN006 BKN021 OVC035 18/18 A2995 RMK AO2
                 P0008 =
2018-07-21 12:55 METAR KJYO 211655Z AUTO 05005KT 3SM +RA SCT006 SCT032 OVC050 18/18 A2996 RMK AO2
                 P0010 =
2018-07-21 12:35 METAR KJYO 211635Z AUTO 07004G08KT 4SM RA SCT043 BKN050 OVC065 18/18 A2997 RMK
                 AO2 P0004 =
2018-07-21 12:15 METAR KJYO 211615Z AUTO 06005KT 7SM -RA SCT009 BKN038 OVC065 18/18 A2998 RMK AO2
                 P0001 =

Support USWX by starting your Amazon purchase here.